createdAt,value
2023-04-05T00:02:11.851Z,78.30
2023-04-05T00:04:50.111Z,78.10
2023-04-05T00:07:21.826Z,78.70
2023-04-05T00:09:53.045Z,78.80
2023-04-05T00:12:23.538Z,77.30
2023-04-05T00:14:55.025Z,77.70
2023-04-05T00:17:24.532Z,78.30
2023-04-05T00:19:57.521Z,78.10
2023-04-05T00:22:28.526Z,78.00
2023-04-05T00:24:57.148Z,78.60
2023-04-05T00:27:25.671Z,78.80
2023-04-05T00:29:55.105Z,78.20
2023-04-05T00:32:23.654Z,78.40
2023-04-05T00:34:51.907Z,77.90
2023-04-05T00:37:23.347Z,78.10
2023-04-05T00:39:53.735Z,78.40
2023-04-05T00:42:22.677Z,78.10
2023-04-05T00:44:51.413Z,78.40
2023-04-05T00:47:21.745Z,78.60
2023-04-05T00:49:52.576Z,78.60
2023-04-05T00:52:24.093Z,78.70
2023-04-05T00:54:54.703Z,79.10
2023-04-05T00:57:24.932Z,79.80
2023-04-05T00:59:53.061Z,80.40
2023-04-05T01:02:34.621Z,81.10
2023-04-05T01:05:12.169Z,80.50
2023-04-05T01:07:47.520Z,80.90
2023-04-05T01:10:18.978Z,82.00
2023-04-05T01:12:48.382Z,81.60
2023-04-05T01:15:16.409Z,80.80
2023-04-05T01:17:47.005Z,80.40
2023-04-05T01:20:16.063Z,80.90
2023-04-05T01:23:14.843Z,80.90
2023-04-05T01:26:32.304Z,81.40
2023-04-05T01:29:29.665Z,81.50
2023-04-05T01:32:04.981Z,82.10
2023-04-05T01:34:42.278Z,82.80
2023-04-05T01:37:18.134Z,82.90
2023-04-05T01:39:50.561Z,82.50
2023-04-05T01:42:25.809Z,83.40
2023-04-05T01:44:55.130Z,83.70
2023-04-05T01:47:25.157Z,83.50
2023-04-05T01:49:53.379Z,83.30
2023-04-05T01:52:22.880Z,83.30
2023-04-05T01:54:52.593Z,83.60
2023-04-05T01:57:20.690Z,83.70
2023-04-05T01:59:49.161Z,83.60
2023-04-05T02:02:18.609Z,83.80
2023-04-05T02:04:47.979Z,83.90
2023-04-05T02:07:19.598Z,83.90
2023-04-05T02:09:48.589Z,83.60
2023-04-05T02:12:18.638Z,83.90
2023-04-05T02:17:39.544Z,84.10
2023-04-05T02:20:15.596Z,83.80
2023-04-05T02:22:45.468Z,83.70
2023-04-05T02:25:14.892Z,84.30
2023-04-05T02:27:42.913Z,85.00
2023-04-05T02:30:13.589Z,84.50
2023-04-05T02:32:45.661Z,84.30
2023-04-05T02:35:17.156Z,85.60
2023-04-05T02:37:45.552Z,86.10
2023-04-05T02:40:23.456Z,85.70
2023-04-05T02:42:52.696Z,85.50
2023-04-05T02:45:21.054Z,85.10
2023-04-05T02:47:49.150Z,85.60
2023-04-05T02:50:20.567Z,86.00
2023-04-05T02:52:49.103Z,87.60
2023-04-05T02:55:17.774Z,88.20
2023-04-05T02:57:46.967Z,88.50
2023-04-05T03:00:28.915Z,87.30
2023-04-05T03:02:59.532Z,87.70
2023-04-05T03:05:32.697Z,87.40
2023-04-05T03:08:02.669Z,89.00
2023-04-05T03:10:36.187Z,89.90
2023-04-05T03:13:28.777Z,90.30
2023-04-05T03:15:58.757Z,90.30
2023-04-05T03:18:30.918Z,90.30
2023-04-05T03:21:12.524Z,90.10
2023-04-05T03:23:51.971Z,90.30
2023-04-05T03:26:27.499Z,90.30
2023-04-05T03:28:56.607Z,89.60
2023-04-05T03:31:32.382Z,89.80
2023-04-05T03:34:04.810Z,90.00
2023-04-05T03:36:46.813Z,90.60
2023-04-05T03:39:27.470Z,90.50
2023-04-05T03:41:57.493Z,90.90
2023-04-05T03:44:25.652Z,90.80
2023-04-05T03:46:55.464Z,90.80
2023-04-05T03:49:25.072Z,90.80
2023-04-05T03:51:56.945Z,91.10
2023-04-05T03:54:25.620Z,91.30
2023-04-05T03:56:57.998Z,91.20
2023-04-05T03:59:28.127Z,91.00
2023-04-05T04:01:56.631Z,91.40
2023-04-05T04:04:26.426Z,91.80
2023-04-05T04:06:57.588Z,92.00
2023-04-05T04:09:31.048Z,91.90
2023-04-05T04:12:07.082Z,91.90
2023-04-05T04:14:38.617Z,92.10
2023-04-05T04:17:33.256Z,92.50
2023-04-05T04:20:27.836Z,92.50
2023-04-05T04:23:25.635Z,92.90
2023-04-05T04:26:05.992Z,93.00
2023-04-05T04:28:38.720Z,93.10
2023-04-05T04:31:23.574Z,93.10
2023-04-05T04:34:13.798Z,93.10
2023-04-05T04:37:18.399Z,93.30
2023-04-05T04:40:08.885Z,93.30
2023-04-05T04:43:00.461Z,93.30
2023-04-05T04:45:43.727Z,93.20
2023-04-05T04:48:33.091Z,93.20
2023-04-05T04:51:14.905Z,93.40
2023-04-05T04:53:43.146Z,93.70
2023-04-05T04:56:13.960Z,93.10
2023-04-05T04:58:43.259Z,93.10
2023-04-05T05:01:11.361Z,93.60
2023-04-05T05:03:39.793Z,93.70
2023-04-05T05:06:12.529Z,94.10
2023-04-05T05:08:40.948Z,94.30
2023-04-05T05:11:09.076Z,94.30
2023-04-05T05:13:39.006Z,94.20
2023-04-05T05:16:09.983Z,94.20
2023-04-05T05:18:40.265Z,94.00
2023-04-05T05:21:08.449Z,94.00
2023-04-05T05:23:36.465Z,94.10
2023-04-05T05:26:05.293Z,94.20
2023-04-05T05:28:33.379Z,93.70
2023-04-05T05:31:04.127Z,94.20
2023-04-05T05:33:36.625Z,94.50
2023-04-05T05:36:04.990Z,94.60
2023-04-05T05:38:33.590Z,95.10
2023-04-05T05:41:02.615Z,95.40
2023-04-05T05:43:31.463Z,95.40
2023-04-05T05:46:04.728Z,95.70
2023-04-05T05:48:33.246Z,95.90
2023-04-05T05:51:09.597Z,95.80
2023-04-05T05:53:39.656Z,95.60
2023-04-05T05:56:11.567Z,95.50
2023-04-05T05:58:42.956Z,95.50
2023-04-05T06:01:12.900Z,95.80
2023-04-05T06:03:41.718Z,96.40
2023-04-05T06:06:11.074Z,96.50
2023-04-05T06:08:39.173Z,96.90
2023-04-05T06:11:07.647Z,96.70
2023-04-05T06:13:36.668Z,97.00
2023-04-05T06:16:05.100Z,97.10
2023-04-05T06:18:36.618Z,97.00
2023-04-05T06:21:04.790Z,97.10
2023-04-05T06:23:33.309Z,97.50
2023-04-05T06:26:01.604Z,97.40
2023-04-05T06:28:29.987Z,97.50
2023-04-05T06:31:00.524Z,97.40
2023-04-05T06:33:28.689Z,97.30
2023-04-05T06:35:58.067Z,97.30
2023-04-05T06:38:26.698Z,97.00
2023-04-05T06:40:54.666Z,96.90
2023-04-05T06:43:24.143Z,97.00
2023-04-05T06:45:52.793Z,97.20
2023-04-05T06:48:23.345Z,96.80
2023-04-05T06:50:59.926Z,96.40
2023-04-05T06:53:28.781Z,96.30
2023-04-05T06:55:57.593Z,95.70
2023-04-05T06:58:26.290Z,96.10
2023-04-05T07:00:54.913Z,95.90
2023-04-05T07:03:25.611Z,96.00
2023-04-05T07:05:54.781Z,95.90
2023-04-05T07:08:25.324Z,95.60
2023-04-05T07:10:56.170Z,95.10
2023-04-05T07:13:25.719Z,94.80
2023-04-05T07:16:02.846Z,94.50
2023-04-05T07:18:31.380Z,94.40
2023-04-05T07:21:03.824Z,93.90
2023-04-05T07:23:33.541Z,94.50
2023-04-05T07:26:04.646Z,94.10
2023-04-05T07:28:36.117Z,94.00
2023-04-05T07:31:05.660Z,94.00
2023-04-05T07:33:35.109Z,93.80
2023-04-05T07:36:04.550Z,93.40
2023-04-05T07:38:34.387Z,93.50
2023-04-05T07:41:03.128Z,93.10
2023-04-05T07:43:31.688Z,93.20
2023-04-05T07:46:04.076Z,93.40
2023-04-05T07:48:33.067Z,93.20
2023-04-05T07:51:06.017Z,92.90
2023-04-05T07:53:36.966Z,92.50
2023-04-05T07:56:06.366Z,92.70
2023-04-05T07:58:36.654Z,92.50
2023-04-05T08:01:06.182Z,92.50
2023-04-05T08:03:37.001Z,92.40
2023-04-05T08:06:11.740Z,92.20
2023-04-05T08:08:45.714Z,91.70
2023-04-05T08:11:14.709Z,91.40
2023-04-05T08:13:42.819Z,90.50
2023-04-05T08:16:11.584Z,90.10
2023-04-05T08:18:39.938Z,90.40
2023-04-05T08:21:08.441Z,90.10
2023-04-05T08:23:36.754Z,90.00
2023-04-05T08:26:08.913Z,88.20
2023-04-05T08:28:37.806Z,86.60
2023-04-05T08:31:06.017Z,88.60
2023-04-05T08:33:34.464Z,87.30
2023-04-05T08:36:06.587Z,86.40
2023-04-05T08:38:35.306Z,86.70
2023-04-05T08:41:16.805Z,87.40
2023-04-05T08:44:03.887Z,89.20
2023-04-05T08:46:33.792Z,87.10
2023-04-05T08:49:06.649Z,87.30
2023-04-05T08:51:42.082Z,87.50
2023-04-05T08:54:10.301Z,87.50
2023-04-05T08:56:42.333Z,88.50
2023-04-05T08:59:12.102Z,89.00
2023-04-05T09:01:45.801Z,85.70
2023-04-05T09:04:17.968Z,85.90
2023-04-05T09:06:46.289Z,83.70
2023-04-05T09:09:16.119Z,86.30
2023-04-05T09:11:46.033Z,85.60
2023-04-05T09:14:14.425Z,83.90
2023-04-05T09:16:43.225Z,83.30
2023-04-05T09:19:11.833Z,82.50
2023-04-05T09:22:01.861Z,82.40
2023-04-05T09:24:39.279Z,83.20
2023-04-05T09:27:11.265Z,82.20
2023-04-05T09:29:41.571Z,83.10
2023-04-05T09:32:12.533Z,83.80
2023-04-05T09:34:42.315Z,82.60
2023-04-05T09:37:19.713Z,82.80
2023-04-05T09:39:49.690Z,81.90
2023-04-05T09:42:22.863Z,83.30
2023-04-05T09:44:53.390Z,80.80
2023-04-05T09:47:24.921Z,80.50
2023-04-05T09:49:57.787Z,79.40
2023-04-05T09:52:29.337Z,79.60
2023-04-05T09:54:59.350Z,80.90
2023-04-05T09:57:30.953Z,78.30
2023-04-05T10:00:00.838Z,76.10
2023-04-05T10:02:38.080Z,78.30
2023-04-05T10:05:11.901Z,79.50
2023-04-05T10:07:40.802Z,80.20
2023-04-05T10:10:10.635Z,79.00
2023-04-05T10:12:43.085Z,79.30
2023-04-05T10:15:14.675Z,79.90
2023-04-05T10:17:49.379Z,79.20
2023-04-05T10:20:21.116Z,79.80
2023-04-05T10:23:00.593Z,80.30
2023-04-05T10:25:41.714Z,80.20
2023-04-05T10:28:13.063Z,78.10
2023-04-05T10:30:45.760Z,78.00
2023-04-05T10:33:26.046Z,76.90
2023-04-05T10:36:06.001Z,78.00
2023-04-05T10:38:43.455Z,81.80
2023-04-05T10:41:17.856Z,91.60
2023-04-05T10:43:51.187Z,93.00
2023-04-05T10:46:28.855Z,82.20
2023-04-05T10:49:07.148Z,79.60
2023-04-05T10:51:36.797Z,77.00
2023-04-05T10:54:05.998Z,76.80
2023-04-05T10:56:34.902Z,74.10
2023-04-05T10:59:05.557Z,72.90
2023-04-05T11:01:35.100Z,72.30
2023-04-05T11:04:13.045Z,72.30
2023-04-05T11:06:43.241Z,69.70
2023-04-05T11:09:15.163Z,70.20
2023-04-05T11:11:48.885Z,70.40
2023-04-05T11:14:25.838Z,69.50
2023-04-05T11:16:56.733Z,71.50
2023-04-05T11:19:49.897Z,69.50
2023-04-05T11:22:28.401Z,68.80
2023-04-05T11:25:01.629Z,69.50
2023-04-05T11:27:34.694Z,69.60
2023-04-05T11:30:06.391Z,69.20
2023-04-05T11:32:45.965Z,67.20
2023-04-05T11:35:16.194Z,67.00
2023-04-05T11:38:04.841Z,65.60
2023-04-05T11:40:34.062Z,65.00
2023-04-05T11:43:05.878Z,65.00
2023-04-05T11:45:37.126Z,62.50
2023-04-05T11:48:07.150Z,62.90
2023-04-05T11:50:36.029Z,64.30
2023-04-05T11:53:14.406Z,64.00
2023-04-05T11:55:44.942Z,63.30
2023-04-05T11:58:17.221Z,63.30
2023-04-05T12:00:47.790Z,63.70
2023-04-05T12:03:16.929Z,64.00
2023-04-05T12:05:52.635Z,62.90
2023-04-05T12:08:22.190Z,62.80
2023-04-05T12:10:56.987Z,63.50
2023-04-05T12:13:31.107Z,62.10
2023-04-05T12:16:02.156Z,61.90
2023-04-05T12:18:33.243Z,63.00
2023-04-05T12:21:05.662Z,63.00
2023-04-05T12:23:36.978Z,64.50
2023-04-05T12:26:07.628Z,63.40
2023-04-05T12:28:52.927Z,62.50
2023-04-05T12:31:38.355Z,63.30
2023-04-05T12:36:57.519Z,61.60
2023-04-05T12:39:31.449Z,60.40
2023-04-05T12:42:01.006Z,60.50
2023-04-05T12:44:31.129Z,62.10
2023-04-05T12:47:05.068Z,63.90
2023-04-05T12:49:38.806Z,61.20
2023-04-05T12:52:07.680Z,63.20
2023-04-05T12:54:35.915Z,63.80
2023-04-05T12:57:09.215Z,64.10
2023-04-05T12:59:37.350Z,61.70
2023-04-05T13:02:06.814Z,61.00
2023-04-05T13:04:42.422Z,60.70
2023-04-05T13:07:11.006Z,64.30
2023-04-05T13:09:38.984Z,70.40
2023-04-05T13:12:07.547Z,70.10
2023-04-05T13:14:35.585Z,65.60
2023-04-05T13:17:04.033Z,69.10
2023-04-05T13:19:35.743Z,65.00
2023-04-05T13:22:06.983Z,59.10
2023-04-05T13:24:35.156Z,67.70
2023-04-05T13:27:03.126Z,65.60
2023-04-05T13:29:32.950Z,60.20
2023-04-05T13:32:00.946Z,58.90
2023-04-05T13:34:31.713Z,58.70
2023-04-05T13:37:01.271Z,59.10
2023-04-05T13:39:30.902Z,62.30
2023-04-05T13:41:59.312Z,63.30
2023-04-05T13:44:27.340Z,62.30
2023-04-05T13:46:55.323Z,61.20
2023-04-05T13:49:24.464Z,60.60
2023-04-05T13:51:53.840Z,60.80
2023-04-05T13:54:23.768Z,59.60
2023-04-05T13:56:51.776Z,60.00
2023-04-05T13:59:20.424Z,59.10
2023-04-05T14:01:49.005Z,61.10
2023-04-05T14:04:17.219Z,60.00
2023-04-05T14:06:45.958Z,56.70
2023-04-05T14:09:14.194Z,54.90
2023-04-05T14:11:43.732Z,56.70
2023-04-05T14:14:12.416Z,56.40
2023-04-05T14:16:40.627Z,57.60
2023-04-05T14:19:08.990Z,57.40
2023-04-05T14:21:37.592Z,58.00
2023-04-05T14:24:06.135Z,57.50
2023-04-05T14:26:34.293Z,57.40
2023-04-05T14:29:04.270Z,55.20
2023-04-05T14:31:32.798Z,55.40
2023-04-05T14:34:01.691Z,55.60
2023-04-05T14:36:32.630Z,56.20
2023-04-05T14:39:00.877Z,54.60
2023-04-05T14:41:29.701Z,55.90
2023-04-05T14:43:58.020Z,58.20
2023-04-05T14:46:27.634Z,56.80
2023-04-05T14:48:55.959Z,55.10
2023-04-05T14:51:24.186Z,54.40
2023-04-05T14:53:53.021Z,54.00
2023-04-05T14:56:21.328Z,53.20
2023-04-05T14:58:49.493Z,52.50
2023-04-05T15:01:17.700Z,53.10
2023-04-05T15:03:48.369Z,52.50
2023-04-05T15:06:16.929Z,51.50
2023-04-05T15:08:47.143Z,51.50
2023-04-05T15:11:15.871Z,51.30
2023-04-05T15:13:43.960Z,51.10
2023-04-05T15:16:15.027Z,51.20
2023-04-05T15:18:43.492Z,51.30
2023-04-05T15:21:13.391Z,50.10
2023-04-05T15:23:41.598Z,50.40
2023-04-05T15:26:09.714Z,50.90
2023-04-05T15:28:40.717Z,51.00
2023-04-05T15:31:08.968Z,50.50
2023-04-05T15:33:38.094Z,50.40
2023-04-05T15:36:09.513Z,51.00
2023-04-05T15:38:39.094Z,49.50
2023-04-05T15:41:09.391Z,50.40
2023-04-05T15:43:41.111Z,50.20
2023-04-05T15:46:09.538Z,49.80
2023-04-05T15:48:37.621Z,50.20
2023-04-05T15:51:06.048Z,50.60
2023-04-05T15:53:34.807Z,51.90
2023-04-05T15:56:04.578Z,51.00
2023-04-05T15:58:33.166Z,51.10
2023-04-05T16:01:01.297Z,50.80
2023-04-05T16:03:29.606Z,49.70
2023-04-05T16:05:58.379Z,50.80
2023-04-05T16:08:26.968Z,51.40
2023-04-05T16:10:56.294Z,50.70
2023-04-05T16:13:28.027Z,52.10
2023-04-05T16:15:56.221Z,52.10
2023-04-05T16:18:25.884Z,51.90
2023-04-05T16:20:55.052Z,51.50
2023-04-05T16:23:23.189Z,52.30
2023-04-05T16:25:51.903Z,51.70
2023-04-05T16:28:20.055Z,51.80
2023-04-05T16:30:51.595Z,52.70
2023-04-05T16:33:19.786Z,51.30
2023-04-05T16:35:48.565Z,51.70
2023-04-05T16:38:17.273Z,52.00
2023-04-05T16:40:45.743Z,52.30
2023-04-05T16:43:14.152Z,51.90
2023-04-05T16:45:43.412Z,51.70
2023-04-05T16:48:15.061Z,51.80
2023-04-05T16:50:44.097Z,51.90
2023-04-05T16:53:14.838Z,51.60
2023-04-05T16:55:43.591Z,52.30
2023-04-05T16:58:12.135Z,52.60
2023-04-05T17:00:40.650Z,53.10
2023-04-05T17:03:08.927Z,52.50
2023-04-05T17:05:39.608Z,52.00
2023-04-05T17:08:07.758Z,52.20
2023-04-05T17:10:46.081Z,52.10
2023-04-05T17:13:14.715Z,52.70
2023-04-05T17:15:43.028Z,51.50
2023-04-05T17:18:13.162Z,52.00
2023-04-05T17:20:43.136Z,52.70
2023-04-05T17:23:11.830Z,53.50
2023-04-05T17:25:40.521Z,53.10
2023-04-05T17:28:08.793Z,52.90
2023-04-05T17:30:37.924Z,52.00
2023-04-05T17:33:08.164Z,53.00
2023-04-05T17:35:36.650Z,51.90
2023-04-05T17:38:07.752Z,52.90
2023-04-05T17:40:36.074Z,52.70
2023-04-05T17:43:04.354Z,53.10
2023-04-05T17:45:32.987Z,53.30
2023-04-05T17:48:01.297Z,53.40
2023-04-05T17:50:30.074Z,53.70
2023-04-05T17:52:59.685Z,53.00
2023-04-05T17:55:29.577Z,53.60
2023-04-05T17:57:59.390Z,54.00
2023-04-05T18:00:27.919Z,54.40
2023-04-05T18:02:56.104Z,54.50
2023-04-05T18:05:24.942Z,54.30
2023-04-05T18:07:53.179Z,54.80
2023-04-05T18:10:23.333Z,55.10
2023-04-05T18:12:53.289Z,54.90
2023-04-05T18:15:21.617Z,55.40
2023-04-05T18:17:49.784Z,55.70
2023-04-05T18:20:18.056Z,55.40
2023-04-05T18:22:46.355Z,56.00
2023-04-05T18:25:20.306Z,56.30
2023-04-05T18:27:49.734Z,56.00
2023-04-05T18:30:19.393Z,55.90
2023-04-05T18:32:47.750Z,55.50
2023-04-05T18:35:16.261Z,55.40
2023-04-05T18:37:45.157Z,55.30
2023-04-05T18:40:14.074Z,55.00
2023-04-05T18:42:45.174Z,54.50
2023-04-05T18:45:13.463Z,54.40
2023-04-05T18:47:43.030Z,54.30
2023-04-05T18:50:12.279Z,54.20
2023-04-05T18:52:40.384Z,54.30
2023-04-05T18:55:09.575Z,54.10
2023-04-05T18:57:39.592Z,54.00
2023-04-05T19:00:10.580Z,54.70
2023-04-05T19:02:39.087Z,55.50
2023-04-05T19:05:09.657Z,55.60
2023-04-05T19:07:37.910Z,55.80
2023-04-05T19:10:07.682Z,56.30
2023-04-05T19:12:35.926Z,56.20
2023-04-05T19:15:05.143Z,56.40
2023-04-05T19:17:33.643Z,55.70
2023-04-05T19:20:03.369Z,55.80
2023-04-05T19:22:33.344Z,55.70
2023-04-05T19:25:01.991Z,56.00
2023-04-05T19:27:33.161Z,56.00
2023-04-05T19:30:01.362Z,56.20
2023-04-05T19:32:29.567Z,57.60
2023-04-05T19:34:59.848Z,58.40
2023-04-05T19:37:28.133Z,57.60
2023-04-05T19:39:58.229Z,56.80
2023-04-05T19:42:27.458Z,56.60
2023-04-05T19:44:59.270Z,57.60
2023-04-05T19:47:28.769Z,57.00
2023-04-05T19:49:58.444Z,57.80
2023-04-05T19:52:40.503Z,58.40
2023-04-05T19:55:28.938Z,59.30
2023-04-05T19:57:58.689Z,58.30
2023-04-05T20:00:36.741Z,58.30
2023-04-05T20:03:28.506Z,59.10
2023-04-05T20:06:06.048Z,58.30
2023-04-05T20:08:37.015Z,58.80
2023-04-05T20:11:11.889Z,59.20
2023-04-05T20:13:43.623Z,58.40
2023-04-05T20:16:13.648Z,58.30
2023-04-05T20:18:48.389Z,58.50
2023-04-05T20:21:17.732Z,59.00
2023-04-05T20:23:46.635Z,60.00
2023-04-05T20:26:17.464Z,60.40
2023-04-05T20:28:53.350Z,59.90
2023-04-05T20:31:23.646Z,60.40
2023-04-05T20:33:56.145Z,59.90
2023-04-05T20:36:31.492Z,59.70
2023-04-05T20:39:00.620Z,60.20
2023-04-05T20:41:31.761Z,62.20
2023-04-05T20:44:01.178Z,62.70
2023-04-05T20:46:30.486Z,61.60
2023-04-05T20:48:59.055Z,61.80
2023-04-05T20:51:27.457Z,61.50
2023-04-05T20:53:55.894Z,61.00
2023-04-05T20:56:24.282Z,61.00
2023-04-05T20:58:56.257Z,60.90
2023-04-05T21:01:24.686Z,62.80
2023-04-05T21:03:53.667Z,63.90
2023-04-05T21:06:22.994Z,63.10
2023-04-05T21:08:51.109Z,62.80
2023-04-05T21:11:19.312Z,62.70
2023-04-05T21:13:47.841Z,63.10
2023-04-05T21:16:19.275Z,63.80
2023-04-05T21:18:47.610Z,64.30
2023-04-05T21:21:15.783Z,64.20
2023-04-05T21:23:45.224Z,64.00
2023-04-05T21:26:13.518Z,65.30
2023-04-05T21:28:41.644Z,64.60
2023-04-05T21:31:11.170Z,63.30
2023-04-05T21:33:41.511Z,63.50
2023-04-05T21:36:10.698Z,63.10
2023-04-05T21:38:38.812Z,64.20
2023-04-05T21:41:07.585Z,64.80
2023-04-05T21:43:36.177Z,65.60
2023-04-05T21:46:04.542Z,65.00
2023-04-05T21:48:32.667Z,65.10
2023-04-05T21:51:02.771Z,63.90
2023-04-05T21:53:32.182Z,63.90
2023-04-05T21:56:00.473Z,64.90
2023-04-05T21:58:32.535Z,65.10
2023-04-05T22:01:01.360Z,65.80
2023-04-05T22:03:29.584Z,66.30
2023-04-05T22:05:58.693Z,65.80
2023-04-05T22:08:28.781Z,65.70
2023-04-05T22:10:57.488Z,65.70
2023-04-05T22:13:26.074Z,65.90
2023-04-05T22:15:54.481Z,65.40
2023-04-05T22:18:25.806Z,65.60
2023-04-05T22:20:55.253Z,65.80
2023-04-05T22:23:23.618Z,65.50
2023-04-05T22:25:53.271Z,65.70
2023-04-05T22:28:23.236Z,65.70
2023-04-05T22:30:51.536Z,65.90
2023-04-05T22:33:19.654Z,66.10
2023-04-05T22:35:48.356Z,65.80
2023-04-05T22:38:16.579Z,66.40
2023-04-05T22:40:46.784Z,66.20
2023-04-05T22:43:17.135Z,65.70
2023-04-05T22:45:49.459Z,66.50
2023-04-05T22:48:19.159Z,66.90
2023-04-05T22:50:47.430Z,67.10
2023-04-05T22:53:16.062Z,67.40
2023-04-05T22:55:44.285Z,67.60
2023-04-05T22:58:13.432Z,67.20
2023-04-05T23:00:44.020Z,67.40
2023-04-05T23:03:13.561Z,68.00
2023-04-05T23:05:41.712Z,68.20
2023-04-05T23:08:10.134Z,68.20
2023-04-05T23:10:38.769Z,68.70
2023-04-05T23:13:07.717Z,69.20
2023-04-05T23:15:36.001Z,69.30
2023-04-05T23:18:06.604Z,69.30
2023-04-05T23:20:34.940Z,69.00
2023-04-05T23:23:03.091Z,69.00
2023-04-05T23:25:32.035Z,69.10
2023-04-05T23:28:00.301Z,68.10
2023-04-05T23:30:28.917Z,68.40
2023-04-05T23:32:57.636Z,69.30
2023-04-05T23:35:27.846Z,70.10
2023-04-05T23:37:56.657Z,70.30
2023-04-05T23:40:28.045Z,70.20
2023-04-05T23:42:56.321Z,70.20
2023-04-05T23:45:24.905Z,70.30
2023-04-05T23:47:54.821Z,70.30
2023-04-05T23:50:24.696Z,70.00
2023-04-05T23:52:58.204Z,70.00
2023-04-05T23:55:26.482Z,70.10
2023-04-05T23:57:58.120Z,70.90
